sensor_id;sensor_type;location;lat;lon;timestamp;temperature;humidity
10083;DHT22;5080;48.528;8.078;2023-11-19T00:00:51;11.30;99.90
10083;DHT22;5080;48.528;8.078;2023-11-19T00:03:18;11.30;99.90
10083;DHT22;5080;48.528;8.078;2023-11-19T00:05:45;11.40;99.90
10083;DHT22;5080;48.528;8.078;2023-11-19T00:08:12;11.40;99.90
10083;DHT22;5080;48.528;8.078;2023-11-19T00:10:41;11.40;99.90
10083;DHT22;5080;48.528;8.078;2023-11-19T00:13:07;11.40;99.90
10083;DHT22;5080;48.528;8.078;2023-11-19T00:15:35;11.60;99.90
10083;DHT22;5080;48.528;8.078;2023-11-19T00:18:02;11.40;99.90
10083;DHT22;5080;48.528;8.078;2023-11-19T00:20:30;11.40;99.90
10083;DHT22;5080;48.528;8.078;2023-11-19T00:22:57;11.40;99.90
10083;DHT22;5080;48.528;8.078;2023-11-19T00:25:23;11.40;99.90
10083;DHT22;5080;48.528;8.078;2023-11-19T00:27:52;11.30;99.90
10083;DHT22;5080;48.528;8.078;2023-11-19T00:30:19;11.40;99.90
10083;DHT22;5080;48.528;8.078;2023-11-19T00:32:46;11.40;99.90
10083;DHT22;5080;48.528;8.078;2023-11-19T00:35:12;11.40;99.90
10083;DHT22;5080;48.528;8.078;2023-11-19T00:37:40;11.40;99.90
10083;DHT22;5080;48.528;8.078;2023-11-19T00:40:09;11.50;99.90
10083;DHT22;5080;48.528;8.078;2023-11-19T00:42:36;11.50;99.90
10083;DHT22;5080;48.528;8.078;2023-11-19T00:45:05;11.50;99.90
10083;DHT22;5080;48.528;8.078;2023-11-19T00:47:34;11.50;99.90
10083;DHT22;5080;48.528;8.078;2023-11-19T00:50:01;11.50;99.90
10083;DHT22;5080;48.528;8.078;2023-11-19T00:52:27;11.50;99.90
10083;DHT22;5080;48.528;8.078;2023-11-19T00:54:54;11.50;99.90
10083;DHT22;5080;48.528;8.078;2023-11-19T00:57:22;11.50;99.90
10083;DHT22;5080;48.528;8.078;2023-11-19T00:59:49;11.50;99.90
10083;DHT22;5080;48.528;8.078;2023-11-19T01:02:17;11.50;99.90
10083;DHT22;5080;48.528;8.078;2023-11-19T01:04:44;11.50;99.90
10083;DHT22;5080;48.528;8.078;2023-11-19T01:07:11;11.50;99.90
10083;DHT22;5080;48.528;8.078;2023-11-19T01:09:38;11.50;99.90
10083;DHT22;5080;48.528;8.078;2023-11-19T01:12:06;11.60;99.90
10083;DHT22;5080;48.528;8.078;2023-11-19T01:14:34;11.50;99.90
10083;DHT22;5080;48.528;8.078;2023-11-19T01:17:02;11.60;99.90
10083;DHT22;5080;48.528;8.078;2023-11-19T01:19:31;11.60;99.90
10083;DHT22;5080;48.528;8.078;2023-11-19T01:21:58;11.60;99.90
10083;DHT22;5080;48.528;8.078;2023-11-19T01:24:25;11.70;99.90
10083;DHT22;5080;48.528;8.078;2023-11-19T01:26:54;11.80;99.90
10083;DHT22;5080;48.528;8.078;2023-11-19T01:29:20;11.80;99.90
10083;DHT22;5080;48.528;8.078;2023-11-19T01:31:47;11.80;99.90
10083;DHT22;5080;48.528;8.078;2023-11-19T01:34:16;11.80;99.90
10083;DHT22;5080;48.528;8.078;2023-11-19T01:36:46;11.80;99.90
10083;DHT22;5080;48.528;8.078;2023-11-19T01:39:14;11.80;99.90
10083;DHT22;5080;48.528;8.078;2023-11-19T01:41:42;11.80;99.90
10083;DHT22;5080;48.528;8.078;2023-11-19T01:44:09;11.80;99.90
10083;DHT22;5080;48.528;8.078;2023-11-19T01:46:37;11.80;99.90
10083;DHT22;5080;48.528;8.078;2023-11-19T01:49:05;11.80;99.90
10083;DHT22;5080;48.528;8.078;2023-11-19T01:51:32;11.80;99.90
10083;DHT22;5080;48.528;8.078;2023-11-19T01:54:01;11.90;99.90
10083;DHT22;5080;48.528;8.078;2023-11-19T01:56:29;11.80;99.90
10083;DHT22;5080;48.528;8.078;2023-11-19T01:58:57;11.90;99.90
10083;DHT22;5080;48.528;8.078;2023-11-19T02:01:24;11.90;99.90
10083;DHT22;5080;48.528;8.078;2023-11-19T02:03:51;11.90;99.90
10083;DHT22;5080;48.528;8.078;2023-11-19T02:06:18;11.90;99.90
10083;DHT22;5080;48.528;8.078;2023-11-19T02:08:45;12.10;99.90
10083;DHT22;5080;48.528;8.078;2023-11-19T02:11:13;12.00;99.90
10083;DHT22;5080;48.528;8.078;2023-11-19T02:13:40;12.00;99.90
10083;DHT22;5080;48.528;8.078;2023-11-19T02:16:09;12.00;99.90
10083;DHT22;5080;48.528;8.078;2023-11-19T02:18:37;12.10;99.90
10083;DHT22;5080;48.528;8.078;2023-11-19T02:21:04;12.10;99.90
10083;DHT22;5080;48.528;8.078;2023-11-19T02:23:32;12.10;99.90
10083;DHT22;5080;48.528;8.078;2023-11-19T02:26:03;12.20;99.90
10083;DHT22;5080;48.528;8.078;2023-11-19T02:28:32;12.20;99.90
10083;DHT22;5080;48.528;8.078;2023-11-19T02:30:59;12.10;99.90
10083;DHT22;5080;48.528;8.078;2023-11-19T02:33:26;12.10;99.90
10083;DHT22;5080;48.528;8.078;2023-11-19T02:35:54;12.20;99.90
10083;DHT22;5080;48.528;8.078;2023-11-19T02:38:21;12.20;99.90
10083;DHT22;5080;48.528;8.078;2023-11-19T02:40:48;12.20;99.90
10083;DHT22;5080;48.528;8.078;2023-11-19T02:43:15;12.30;99.90
10083;DHT22;5080;48.528;8.078;2023-11-19T02:45:44;12.20;99.90
10083;DHT22;5080;48.528;8.078;2023-11-19T02:48:11;12.20;99.90
10083;DHT22;5080;48.528;8.078;2023-11-19T02:50:39;12.20;99.90
10083;DHT22;5080;48.528;8.078;2023-11-19T02:53:06;12.20;99.90
10083;DHT22;5080;48.528;8.078;2023-11-19T02:55:33;12.20;99.90
10083;DHT22;5080;48.528;8.078;2023-11-19T02:58:03;12.20;99.90
10083;DHT22;5080;48.528;8.078;2023-11-19T03:00:35;12.20;99.90
10083;DHT22;5080;48.528;8.078;2023-11-19T03:03:08;12.20;99.90
10083;DHT22;5080;48.528;8.078;2023-11-19T03:05:45;12.20;99.90
10083;DHT22;5080;48.528;8.078;2023-11-19T03:08:12;12.10;99.90
10083;DHT22;5080;48.528;8.078;2023-11-19T03:10:39;12.20;99.90
10083;DHT22;5080;48.528;8.078;2023-11-19T03:13:11;12.10;99.90
10083;DHT22;5080;48.528;8.078;2023-11-19T03:15:38;12.20;99.90
10083;DHT22;5080;48.528;8.078;2023-11-19T03:18:05;12.20;99.90
10083;DHT22;5080;48.528;8.078;2023-11-19T03:20:33;12.20;99.90
10083;DHT22;5080;48.528;8.078;2023-11-19T03:23:00;12.20;99.90
10083;DHT22;5080;48.528;8.078;2023-11-19T03:25:27;12.20;99.90
10083;DHT22;5080;48.528;8.078;2023-11-19T03:27:59;12.20;99.90
10083;DHT22;5080;48.528;8.078;2023-11-19T03:30:26;12.20;99.90
10083;DHT22;5080;48.528;8.078;2023-11-19T03:32:53;12.20;99.90
10083;DHT22;5080;48.528;8.078;2023-11-19T03:35:20;12.30;99.90
10083;DHT22;5080;48.528;8.078;2023-11-19T03:37:48;12.20;99.90
10083;DHT22;5080;48.528;8.078;2023-11-19T03:40:15;12.20;99.90
10083;DHT22;5080;48.528;8.078;2023-11-19T03:42:42;12.20;99.90
10083;DHT22;5080;48.528;8.078;2023-11-19T03:45:09;12.30;99.90
10083;DHT22;5080;48.528;8.078;2023-11-19T03:47:40;12.30;99.90
10083;DHT22;5080;48.528;8.078;2023-11-19T03:50:10;12.30;99.90
10083;DHT22;5080;48.528;8.078;2023-11-19T03:52:37;12.20;99.90
10083;DHT22;5080;48.528;8.078;2023-11-19T03:55:06;12.30;99.90
10083;DHT22;5080;48.528;8.078;2023-11-19T03:57:34;12.30;99.90
10083;DHT22;5080;48.528;8.078;2023-11-19T04:00:01;12.40;99.90
10083;DHT22;5080;48.528;8.078;2023-11-19T04:02:33;12.40;99.90
10083;DHT22;5080;48.528;8.078;2023-11-19T04:05:00;12.40;99.90
10083;DHT22;5080;48.528;8.078;2023-11-19T04:07:26;12.40;99.90
10083;DHT22;5080;48.528;8.078;2023-11-19T04:09:53;12.40;99.90
10083;DHT22;5080;48.528;8.078;2023-11-19T04:12:21;12.40;99.90
10083;DHT22;5080;48.528;8.078;2023-11-19T04:14:48;12.40;99.90
10083;DHT22;5080;48.528;8.078;2023-11-19T04:17:15;12.50;99.90
10083;DHT22;5080;48.528;8.078;2023-11-19T04:19:42;12.50;99.90
10083;DHT22;5080;48.528;8.078;2023-11-19T04:22:08;12.50;99.90
10083;DHT22;5080;48.528;8.078;2023-11-19T04:24:36;12.50;99.90
10083;DHT22;5080;48.528;8.078;2023-11-19T04:27:04;12.50;99.90
10083;DHT22;5080;48.528;8.078;2023-11-19T04:29:33;12.50;99.90
10083;DHT22;5080;48.528;8.078;2023-11-19T04:32:00;12.60;99.90
10083;DHT22;5080;48.528;8.078;2023-11-19T04:34:26;12.70;99.90
10083;DHT22;5080;48.528;8.078;2023-11-19T04:36:53;12.70;99.90
10083;DHT22;5080;48.528;8.078;2023-11-19T04:39:20;12.70;99.90
10083;DHT22;5080;48.528;8.078;2023-11-19T04:41:48;12.90;99.90
10083;DHT22;5080;48.528;8.078;2023-11-19T04:44:17;12.70;99.90
10083;DHT22;5080;48.528;8.078;2023-11-19T04:46:45;12.70;99.90
10083;DHT22;5080;48.528;8.078;2023-11-19T04:49:13;12.70;99.90
10083;DHT22;5080;48.528;8.078;2023-11-19T04:51:40;12.70;99.90
10083;DHT22;5080;48.528;8.078;2023-11-19T04:54:08;12.70;99.90
10083;DHT22;5080;48.528;8.078;2023-11-19T04:56:35;12.80;99.90
10083;DHT22;5080;48.528;8.078;2023-11-19T04:59:02;12.80;99.90
10083;DHT22;5080;48.528;8.078;2023-11-19T05:01:31;12.80;99.90
10083;DHT22;5080;48.528;8.078;2023-11-19T05:03:59;12.80;99.90
10083;DHT22;5080;48.528;8.078;2023-11-19T05:06:27;12.80;99.90
10083;DHT22;5080;48.528;8.078;2023-11-19T05:08:55;12.90;99.90
10083;DHT22;5080;48.528;8.078;2023-11-19T05:11:21;12.70;99.90
10083;DHT22;5080;48.528;8.078;2023-11-19T05:13:49;12.70;99.90
10083;DHT22;5080;48.528;8.078;2023-11-19T05:16:16;12.70;99.90
10083;DHT22;5080;48.528;8.078;2023-11-19T05:18:43;12.60;99.90
10083;DHT22;5080;48.528;8.078;2023-11-19T05:21:11;12.70;99.90
10083;DHT22;5080;48.528;8.078;2023-11-19T05:23:38;12.60;99.90
10083;DHT22;5080;48.528;8.078;2023-11-19T05:26:05;12.60;99.90
10083;DHT22;5080;48.528;8.078;2023-11-19T05:28:32;12.60;99.90
10083;DHT22;5080;48.528;8.078;2023-11-19T05:30:58;12.70;99.90
10083;DHT22;5080;48.528;8.078;2023-11-19T05:33:26;12.70;99.90
10083;DHT22;5080;48.528;8.078;2023-11-19T05:35:52;12.70;99.90
10083;DHT22;5080;48.528;8.078;2023-11-19T05:38:20;12.80;99.90
10083;DHT22;5080;48.528;8.078;2023-11-19T05:40:47;12.80;99.90
10083;DHT22;5080;48.528;8.078;2023-11-19T05:43:15;12.80;99.90
10083;DHT22;5080;48.528;8.078;2023-11-19T05:45:42;12.80;99.90
10083;DHT22;5080;48.528;8.078;2023-11-19T05:48:09;12.90;99.90
10083;DHT22;5080;48.528;8.078;2023-11-19T05:50:36;12.90;99.90
10083;DHT22;5080;48.528;8.078;2023-11-19T05:53:03;13.00;99.90
10083;DHT22;5080;48.528;8.078;2023-11-19T05:55:33;12.90;99.90
10083;DHT22;5080;48.528;8.078;2023-11-19T05:58:01;12.80;99.90
10083;DHT22;5080;48.528;8.078;2023-11-19T06:00:28;12.90;99.90
10083;DHT22;5080;48.528;8.078;2023-11-19T06:02:56;12.90;99.90
10083;DHT22;5080;48.528;8.078;2023-11-19T06:05:23;12.90;99.90
10083;DHT22;5080;48.528;8.078;2023-11-19T06:07:49;12.90;99.90
10083;DHT22;5080;48.528;8.078;2023-11-19T06:10:17;12.90;99.90
10083;DHT22;5080;48.528;8.078;2023-11-19T06:12:46;12.90;99.90
10083;DHT22;5080;48.528;8.078;2023-11-19T06:15:13;12.90;99.90
10083;DHT22;5080;48.528;8.078;2023-11-19T06:17:40;13.00;99.90
10083;DHT22;5080;48.528;8.078;2023-11-19T06:20:07;13.00;99.90
10083;DHT22;5080;48.528;8.078;2023-11-19T06:22:34;13.00;99.90
10083;DHT22;5080;48.528;8.078;2023-11-19T06:25:02;13.00;99.90
10083;DHT22;5080;48.528;8.078;2023-11-19T06:27:32;13.00;99.90
10083;DHT22;5080;48.528;8.078;2023-11-19T06:30:01;13.00;99.90
10083;DHT22;5080;48.528;8.078;2023-11-19T06:32:27;13.00;99.90
10083;DHT22;5080;48.528;8.078;2023-11-19T06:34:55;13.00;99.90
10083;DHT22;5080;48.528;8.078;2023-11-19T06:37:22;13.10;99.90
10083;DHT22;5080;48.528;8.078;2023-11-19T06:39:48;13.10;99.90
10083;DHT22;5080;48.528;8.078;2023-11-19T06:42:15;13.10;99.90
10083;DHT22;5080;48.528;8.078;2023-11-19T06:44:42;13.20;99.90
10083;DHT22;5080;48.528;8.078;2023-11-19T06:47:10;13.10;99.90
10083;DHT22;5080;48.528;8.078;2023-11-19T06:49:37;13.20;99.90
10083;DHT22;5080;48.528;8.078;2023-11-19T06:52:04;13.10;99.90
10083;DHT22;5080;48.528;8.078;2023-11-19T06:54:32;13.10;99.90
10083;DHT22;5080;48.528;8.078;2023-11-19T06:56:58;13.10;99.90
10083;DHT22;5080;48.528;8.078;2023-11-19T06:59:25;13.10;99.90
10083;DHT22;5080;48.528;8.078;2023-11-19T07:01:52;13.10;99.90
10083;DHT22;5080;48.528;8.078;2023-11-19T07:04:20;13.10;99.90
10083;DHT22;5080;48.528;8.078;2023-11-19T07:06:47;13.10;99.90
10083;DHT22;5080;48.528;8.078;2023-11-19T07:09:14;13.10;99.90
10083;DHT22;5080;48.528;8.078;2023-11-19T07:11:41;13.10;99.90
10083;DHT22;5080;48.528;8.078;2023-11-19T07:14:09;13.20;99.90
10083;DHT22;5080;48.528;8.078;2023-11-19T07:16:37;13.20;99.90
10083;DHT22;5080;48.528;8.078;2023-11-19T07:19:04;13.20;99.90
10083;DHT22;5080;48.528;8.078;2023-11-19T07:21:33;13.30;99.90
10083;DHT22;5080;48.528;8.078;2023-11-19T07:24:01;13.30;99.90
10083;DHT22;5080;48.528;8.078;2023-11-19T07:26:28;13.30;99.90
10083;DHT22;5080;48.528;8.078;2023-11-19T07:28:55;13.30;99.90
10083;DHT22;5080;48.528;8.078;2023-11-19T07:31:23;13.30;99.90
10083;DHT22;5080;48.528;8.078;2023-11-19T07:33:50;13.50;99.90
10083;DHT22;5080;48.528;8.078;2023-11-19T07:36:17;13.30;99.90
10083;DHT22;5080;48.528;8.078;2023-11-19T07:38:45;13.40;99.90
10083;DHT22;5080;48.528;8.078;2023-11-19T07:41:12;13.40;99.90
10083;DHT22;5080;48.528;8.078;2023-11-19T07:43:39;13.40;99.90
10083;DHT22;5080;48.528;8.078;2023-11-19T07:46:11;13.40;99.90
10083;DHT22;5080;48.528;8.078;2023-11-19T07:48:38;13.40;99.90
10083;DHT22;5080;48.528;8.078;2023-11-19T07:51:05;13.50;99.90
10083;DHT22;5080;48.528;8.078;2023-11-19T07:53:32;13.50;99.90
10083;DHT22;5080;48.528;8.078;2023-11-19T07:56:00;13.40;99.90
10083;DHT22;5080;48.528;8.078;2023-11-19T07:58:27;13.50;99.90
10083;DHT22;5080;48.528;8.078;2023-11-19T08:00:54;13.50;99.90
10083;DHT22;5080;48.528;8.078;2023-11-19T08:03:21;13.50;99.90
10083;DHT22;5080;48.528;8.078;2023-11-19T08:05:48;13.60;99.90
10083;DHT22;5080;48.528;8.078;2023-11-19T08:08:15;13.60;99.90
10083;DHT22;5080;48.528;8.078;2023-11-19T08:10:42;13.60;99.90
10083;DHT22;5080;48.528;8.078;2023-11-19T08:13:11;13.60;99.90
10083;DHT22;5080;48.528;8.078;2023-11-19T08:15:38;13.60;99.90
10083;DHT22;5080;48.528;8.078;2023-11-19T08:18:05;13.60;99.90
10083;DHT22;5080;48.528;8.078;2023-11-19T08:20:32;13.60;99.90
10083;DHT22;5080;48.528;8.078;2023-11-19T08:22:59;13.60;99.90
10083;DHT22;5080;48.528;8.078;2023-11-19T08:25:26;13.70;99.90
10083;DHT22;5080;48.528;8.078;2023-11-19T08:27:55;13.70;99.90
10083;DHT22;5080;48.528;8.078;2023-11-19T08:30:23;13.80;99.90
10083;DHT22;5080;48.528;8.078;2023-11-19T08:32:50;13.80;99.90
10083;DHT22;5080;48.528;8.078;2023-11-19T08:35:17;13.80;99.90
10083;DHT22;5080;48.528;8.078;2023-11-19T08:37:43;13.90;99.90
10083;DHT22;5080;48.528;8.078;2023-11-19T08:40:11;13.90;99.90
10083;DHT22;5080;48.528;8.078;2023-11-19T08:42:39;14.00;99.90
10083;DHT22;5080;48.528;8.078;2023-11-19T08:45:07;14.00;99.90
10083;DHT22;5080;48.528;8.078;2023-11-19T08:47:36;14.00;99.90
10083;DHT22;5080;48.528;8.078;2023-11-19T08:50:04;14.00;99.90
10083;DHT22;5080;48.528;8.078;2023-11-19T08:52:31;14.00;99.90
10083;DHT22;5080;48.528;8.078;2023-11-19T08:54:58;14.00;99.90
10083;DHT22;5080;48.528;8.078;2023-11-19T08:57:25;14.00;99.90
10083;DHT22;5080;48.528;8.078;2023-11-19T08:59:51;14.00;99.90
10083;DHT22;5080;48.528;8.078;2023-11-19T09:02:18;13.90;99.90
10083;DHT22;5080;48.528;8.078;2023-11-19T09:04:46;14.00;99.90
10083;DHT22;5080;48.528;8.078;2023-11-19T09:07:13;14.00;99.90
10083;DHT22;5080;48.528;8.078;2023-11-19T09:09:40;14.00;99.90
10083;DHT22;5080;48.528;8.078;2023-11-19T09:12:07;14.10;99.90
10083;DHT22;5080;48.528;8.078;2023-11-19T09:14:34;14.00;99.90
10083;DHT22;5080;48.528;8.078;2023-11-19T09:17:01;14.00;99.90
10083;DHT22;5080;48.528;8.078;2023-11-19T09:19:27;14.00;99.90
10083;DHT22;5080;48.528;8.078;2023-11-19T09:21:55;14.10;99.90
10083;DHT22;5080;48.528;8.078;2023-11-19T09:24:22;14.10;99.90
10083;DHT22;5080;48.528;8.078;2023-11-19T09:26:49;14.10;99.90
10083;DHT22;5080;48.528;8.078;2023-11-19T09:29:16;14.10;99.90
10083;DHT22;5080;48.528;8.078;2023-11-19T09:31:43;14.10;99.90
10083;DHT22;5080;48.528;8.078;2023-11-19T09:34:09;14.10;99.90
10083;DHT22;5080;48.528;8.078;2023-11-19T09:36:36;14.20;99.90
10083;DHT22;5080;48.528;8.078;2023-11-19T09:39:04;14.10;99.90
10083;DHT22;5080;48.528;8.078;2023-11-19T09:41:33;14.10;99.90
10083;DHT22;5080;48.528;8.078;2023-11-19T09:44:00;14.10;99.90
10083;DHT22;5080;48.528;8.078;2023-11-19T09:46:28;14.10;99.90
10083;DHT22;5080;48.528;8.078;2023-11-19T09:48:57;14.20;99.90
10083;DHT22;5080;48.528;8.078;2023-11-19T09:51:25;14.30;99.90
10083;DHT22;5080;48.528;8.078;2023-11-19T09:53:52;14.30;99.90
10083;DHT22;5080;48.528;8.078;2023-11-19T09:56:20;14.40;99.90
10083;DHT22;5080;48.528;8.078;2023-11-19T09:58:47;14.40;99.90
10083;DHT22;5080;48.528;8.078;2023-11-19T10:01:14;14.50;99.90
10083;DHT22;5080;48.528;8.078;2023-11-19T10:03:41;14.50;99.90
10083;DHT22;5080;48.528;8.078;2023-11-19T10:06:09;14.50;99.90
10083;DHT22;5080;48.528;8.078;2023-11-19T10:08:37;14.60;99.90
10083;DHT22;5080;48.528;8.078;2023-11-19T10:11:06;14.60;99.90
10083;DHT22;5080;48.528;8.078;2023-11-19T10:13:35;14.70;99.90
10083;DHT22;5080;48.528;8.078;2023-11-19T10:16:06;14.70;99.90
10083;DHT22;5080;48.528;8.078;2023-11-19T10:18:33;14.60;99.90
10083;DHT22;5080;48.528;8.078;2023-11-19T10:21:04;14.60;99.90
10083;DHT22;5080;48.528;8.078;2023-11-19T10:23:31;14.60;99.90
10083;DHT22;5080;48.528;8.078;2023-11-19T10:26:03;14.60;99.90
10083;DHT22;5080;48.528;8.078;2023-11-19T10:28:39;14.70;99.90
10083;DHT22;5080;48.528;8.078;2023-11-19T10:31:08;14.70;99.90
10083;DHT22;5080;48.528;8.078;2023-11-19T10:33:35;14.80;99.90
10083;DHT22;5080;48.528;8.078;2023-11-19T10:36:02;14.80;99.90
10083;DHT22;5080;48.528;8.078;2023-11-19T10:38:29;14.80;99.90
10083;DHT22;5080;48.528;8.078;2023-11-19T10:40:56;14.80;99.90
10083;DHT22;5080;48.528;8.078;2023-11-19T10:43:24;14.80;99.90
10083;DHT22;5080;48.528;8.078;2023-11-19T10:45:52;14.80;99.90
10083;DHT22;5080;48.528;8.078;2023-11-19T10:48:19;14.80;99.90
10083;DHT22;5080;48.528;8.078;2023-11-19T10:50:52;14.80;99.90
10083;DHT22;5080;48.528;8.078;2023-11-19T10:53:21;14.90;99.90
10083;DHT22;5080;48.528;8.078;2023-11-19T10:55:52;14.90;99.90
10083;DHT22;5080;48.528;8.078;2023-11-19T10:58:20;15.00;99.90
10083;DHT22;5080;48.528;8.078;2023-11-19T11:00:51;15.00;99.90
10083;DHT22;5080;48.528;8.078;2023-11-19T11:03:21;15.10;99.90
10083;DHT22;5080;48.528;8.078;2023-11-19T11:05:49;15.30;99.90
10083;DHT22;5080;48.528;8.078;2023-11-19T11:08:17;15.40;99.90
10083;DHT22;5080;48.528;8.078;2023-11-19T11:10:46;15.50;99.90
10083;DHT22;5080;48.528;8.078;2023-11-19T11:13:14;15.60;99.90
10083;DHT22;5080;48.528;8.078;2023-11-19T11:15:41;15.70;99.90
10083;DHT22;5080;48.528;8.078;2023-11-19T11:18:09;15.80;99.90
10083;DHT22;5080;48.528;8.078;2023-11-19T11:20:37;15.80;99.90
10083;DHT22;5080;48.528;8.078;2023-11-19T11:23:37;15.80;99.90
10083;DHT22;5080;48.528;8.078;2023-11-19T11:26:23;15.80;99.90
10083;DHT22;5080;48.528;8.078;2023-11-19T11:28:58;15.70;99.90
10083;DHT22;5080;48.528;8.078;2023-11-19T11:37:24;15.50;99.90
10083;DHT22;5080;48.528;8.078;2023-11-19T11:39:52;15.50;99.90
10083;DHT22;5080;48.528;8.078;2023-11-19T11:42:33;15.50;99.90
10083;DHT22;5080;48.528;8.078;2023-11-19T11:45:00;15.50;99.90
10083;DHT22;5080;48.528;8.078;2023-11-19T11:50:29;15.70;99.90
10083;DHT22;5080;48.528;8.078;2023-11-19T11:53:18;15.80;99.90
10083;DHT22;5080;48.528;8.078;2023-11-19T11:55:56;15.90;99.90
10083;DHT22;5080;48.528;8.078;2023-11-19T11:58:32;15.80;99.90
10083;DHT22;5080;48.528;8.078;2023-11-19T12:01:01;15.90;99.90
10083;DHT22;5080;48.528;8.078;2023-11-19T12:03:29;15.90;99.90
10083;DHT22;5080;48.528;8.078;2023-11-19T12:05:57;15.90;99.90
10083;DHT22;5080;48.528;8.078;2023-11-19T12:08:27;16.00;99.90
10083;DHT22;5080;48.528;8.078;2023-11-19T12:10:56;16.20;99.90
10083;DHT22;5080;48.528;8.078;2023-11-19T12:16:32;16.40;99.90
10083;DHT22;5080;48.528;8.078;2023-11-19T12:19:03;16.50;99.90
10083;DHT22;5080;48.528;8.078;2023-11-19T12:21:31;16.50;99.90
10083;DHT22;5080;48.528;8.078;2023-11-19T12:24:00;16.50;99.90
10083;DHT22;5080;48.528;8.078;2023-11-19T12:26:34;16.60;99.90
10083;DHT22;5080;48.528;8.078;2023-11-19T12:29:02;16.50;99.90
10083;DHT22;5080;48.528;8.078;2023-11-19T12:31:32;16.60;99.90
10083;DHT22;5080;48.528;8.078;2023-11-19T12:34:05;16.70;99.90
10083;DHT22;5080;48.528;8.078;2023-11-19T12:36:32;16.60;99.90
10083;DHT22;5080;48.528;8.078;2023-11-19T12:39:00;16.60;99.90
10083;DHT22;5080;48.528;8.078;2023-11-19T12:41:27;16.50;99.90
10083;DHT22;5080;48.528;8.078;2023-11-19T12:44:03;16.60;99.90
10083;DHT22;5080;48.528;8.078;2023-11-19T12:46:35;16.60;99.90
10083;DHT22;5080;48.528;8.078;2023-11-19T12:49:02;16.60;99.90
10083;DHT22;5080;48.528;8.078;2023-11-19T12:51:31;16.60;99.90
10083;DHT22;5080;48.528;8.078;2023-11-19T12:53:59;16.60;99.90
10083;DHT22;5080;48.528;8.078;2023-11-19T12:56:26;16.70;99.90
10083;DHT22;5080;48.528;8.078;2023-11-19T12:58:52;16.90;99.90
10083;DHT22;5080;48.528;8.078;2023-11-19T13:01:20;17.00;99.90
10083;DHT22;5080;48.528;8.078;2023-11-19T13:03:47;17.10;99.90
10083;DHT22;5080;48.528;8.078;2023-11-19T13:06:17;17.10;99.90
10083;DHT22;5080;48.528;8.078;2023-11-19T13:08:47;17.10;99.90
10083;DHT22;5080;48.528;8.078;2023-11-19T13:11:30;17.00;99.90
10083;DHT22;5080;48.528;8.078;2023-11-19T13:13:58;17.00;99.90
10083;DHT22;5080;48.528;8.078;2023-11-19T13:16:26;17.00;99.90
10083;DHT22;5080;48.528;8.078;2023-11-19T13:18:53;17.00;99.90
10083;DHT22;5080;48.528;8.078;2023-11-19T13:21:20;17.00;99.90
10083;DHT22;5080;48.528;8.078;2023-11-19T13:23:47;16.90;99.90
10083;DHT22;5080;48.528;8.078;2023-11-19T13:26:14;16.80;99.90
10083;DHT22;5080;48.528;8.078;2023-11-19T13:28:42;16.70;99.90
10083;DHT22;5080;48.528;8.078;2023-11-19T13:31:09;16.70;99.90
10083;DHT22;5080;48.528;8.078;2023-11-19T13:33:35;16.70;99.90
10083;DHT22;5080;48.528;8.078;2023-11-19T13:36:02;16.70;99.90
10083;DHT22;5080;48.528;8.078;2023-11-19T13:38:31;16.80;99.90
10083;DHT22;5080;48.528;8.078;2023-11-19T13:40:59;16.70;99.90
10083;DHT22;5080;48.528;8.078;2023-11-19T13:43:26;16.70;99.90
10083;DHT22;5080;48.528;8.078;2023-11-19T13:45:54;16.70;99.90
10083;DHT22;5080;48.528;8.078;2023-11-19T13:48:22;16.70;99.90
10083;DHT22;5080;48.528;8.078;2023-11-19T13:50:49;16.70;99.90
10083;DHT22;5080;48.528;8.078;2023-11-19T13:53:16;16.70;99.90
10083;DHT22;5080;48.528;8.078;2023-11-19T13:55:43;16.70;99.90
10083;DHT22;5080;48.528;8.078;2023-11-19T13:58:10;16.60;99.90
10083;DHT22;5080;48.528;8.078;2023-11-19T14:00:36;16.60;99.90
10083;DHT22;5080;48.528;8.078;2023-11-19T14:03:05;16.60;99.90
10083;DHT22;5080;48.528;8.078;2023-11-19T14:05:32;16.60;99.90
10083;DHT22;5080;48.528;8.078;2023-11-19T14:07:58;16.60;99.90
10083;DHT22;5080;48.528;8.078;2023-11-19T14:10:26;16.70;99.90
10083;DHT22;5080;48.528;8.078;2023-11-19T14:12:54;16.70;99.90
10083;DHT22;5080;48.528;8.078;2023-11-19T14:15:20;16.80;99.90
10083;DHT22;5080;48.528;8.078;2023-11-19T14:17:47;16.80;99.90
10083;DHT22;5080;48.528;8.078;2023-11-19T14:20:16;16.80;99.90
10083;DHT22;5080;48.528;8.078;2023-11-19T14:22:43;16.80;99.90
10083;DHT22;5080;48.528;8.078;2023-11-19T14:25:11;16.60;99.90
10083;DHT22;5080;48.528;8.078;2023-11-19T14:27:37;16.60;99.90
10083;DHT22;5080;48.528;8.078;2023-11-19T14:30:06;16.50;99.90
10083;DHT22;5080;48.528;8.078;2023-11-19T14:32:35;16.40;99.90
10083;DHT22;5080;48.528;8.078;2023-11-19T14:35:01;16.30;99.90
10083;DHT22;5080;48.528;8.078;2023-11-19T14:37:30;16.20;99.90
10083;DHT22;5080;48.528;8.078;2023-11-19T14:39:57;16.10;99.90
10083;DHT22;5080;48.528;8.078;2023-11-19T14:42:24;16.10;99.90
10083;DHT22;5080;48.528;8.078;2023-11-19T14:44:51;16.00;99.90
10083;DHT22;5080;48.528;8.078;2023-11-19T14:47:19;16.10;99.90
10083;DHT22;5080;48.528;8.078;2023-11-19T14:49:46;16.00;99.90
10083;DHT22;5080;48.528;8.078;2023-11-19T14:52:13;15.90;99.90
10083;DHT22;5080;48.528;8.078;2023-11-19T14:54:41;15.90;99.90
10083;DHT22;5080;48.528;8.078;2023-11-19T14:57:08;15.90;99.90
10083;DHT22;5080;48.528;8.078;2023-11-19T14:59:34;15.80;99.90
10083;DHT22;5080;48.528;8.078;2023-11-19T15:02:01;15.70;99.90
10083;DHT22;5080;48.528;8.078;2023-11-19T15:04:29;15.70;99.90
10083;DHT22;5080;48.528;8.078;2023-11-19T15:06:57;15.70;99.90
10083;DHT22;5080;48.528;8.078;2023-11-19T15:09:23;15.70;99.90
10083;DHT22;5080;48.528;8.078;2023-11-19T15:11:53;15.70;99.90
10083;DHT22;5080;48.528;8.078;2023-11-19T15:14:20;15.70;99.90
10083;DHT22;5080;48.528;8.078;2023-11-19T15:16:47;15.70;99.90
10083;DHT22;5080;48.528;8.078;2023-11-19T15:19:17;15.60;99.90
10083;DHT22;5080;48.528;8.078;2023-11-19T15:21:45;15.60;99.90
10083;DHT22;5080;48.528;8.078;2023-11-19T15:24:12;15.60;99.90
10083;DHT22;5080;48.528;8.078;2023-11-19T15:26:39;15.50;99.90
10083;DHT22;5080;48.528;8.078;2023-11-19T15:29:07;15.40;99.90
10083;DHT22;5080;48.528;8.078;2023-11-19T15:31:35;15.40;99.90
10083;DHT22;5080;48.528;8.078;2023-11-19T15:34:01;15.40;99.90
10083;DHT22;5080;48.528;8.078;2023-11-19T15:36:29;15.40;99.90
10083;DHT22;5080;48.528;8.078;2023-11-19T15:38:57;15.40;99.90
10083;DHT22;5080;48.528;8.078;2023-11-19T15:41:24;15.30;99.90
10083;DHT22;5080;48.528;8.078;2023-11-19T15:43:52;15.20;99.90
10083;DHT22;5080;48.528;8.078;2023-11-19T15:46:21;15.30;99.90
10083;DHT22;5080;48.528;8.078;2023-11-19T15:48:48;15.30;99.90
10083;DHT22;5080;48.528;8.078;2023-11-19T15:51:15;15.30;99.90
10083;DHT22;5080;48.528;8.078;2023-11-19T15:53:43;15.30;99.90
10083;DHT22;5080;48.528;8.078;2023-11-19T15:56:09;15.20;99.90
10083;DHT22;5080;48.528;8.078;2023-11-19T15:58:36;15.30;99.90
10083;DHT22;5080;48.528;8.078;2023-11-19T16:01:05;15.10;99.90